Time;durP1;ratioP1;P1;durP2;ratioP2;P2;SDS_P1;SDS_P2;PMS_P1;PMS_P2;Temp;Humidity;BMP_temperature;BMP_pressure;BME280_temperature;BME280_humidity;BME280_pressure;Samples;Min_cycle;Max_cycle;Signal;HPM_P1;HPM_P2
2023/05/28 00:02:34;;;;;;;14.02;4.30;;;;;;;14.31;100.00;101937.47;5053652;28;20427;-54
2023/05/28 00:05:03;;;;;;;9.70;4.45;;;;;;;14.27;100.00;101937.78;5070200;28;20044;-52
2023/05/28 00:07:31;;;;;;;11.63;3.97;;;;;;;14.11;100.00;101938.75;5070178;28;20119;-55
2023/05/28 00:10:00;;;;;;;11.32;4.25;;;;;;;14.02;100.00;101931.41;5070500;28;20049;-65
2023/05/28 00:12:28;;;;;;;10.50;3.85;;;;;;;13.98;100.00;101933.38;5068656;28;20067;-65
2023/05/28 00:14:57;;;;;;;11.43;3.95;;;;;;;13.93;100.00;101935.44;5070484;28;20040;-65
2023/05/28 00:17:26;;;;;;;10.90;4.30;;;;;;;13.84;100.00;101921.00;5073184;28;20421;-66
2023/05/28 00:19:54;;;;;;;10.27;4.20;;;;;;;13.94;100.00;101928.38;5072896;28;20048;-65
2023/05/28 00:22:22;;;;;;;10.65;4.22;;;;;;;13.88;100.00;101912.88;5072957;28;20102;-65
2023/05/28 00:24:51;;;;;;;10.90;4.40;;;;;;;13.80;100.00;101927.44;5073023;28;20049;-66
2023/05/28 00:27:19;;;;;;;9.77;4.45;;;;;;;13.75;100.00;101939.25;5072101;28;20120;-65
2023/05/28 00:29:48;;;;;;;15.88;5.82;;;;;;;13.71;100.00;101937.72;5052477;28;20056;-65
2023/05/28 00:32:17;;;;;;;13.10;5.38;;;;;;;13.71;100.00;101935.91;5071677;28;20051;-64
2023/05/28 00:34:45;;;;;;;13.10;5.90;;;;;;;13.57;100.00;101936.75;5072799;28;20084;-64
2023/05/28 00:37:14;;;;;;;13.65;5.72;;;;;;;13.53;100.00;101937.91;5072307;28;20040;-53
2023/05/28 00:39:42;;;;;;;15.18;5.65;;;;;;;13.35;100.00;101937.19;5070550;28;20524;-52
2023/05/28 00:42:12;;;;;;;13.23;5.55;;;;;;;13.21;100.00;101934.50;5068147;28;20081;-52
2023/05/28 00:44:44;;;;;;;12.55;5.78;;;;;;;13.30;100.00;101934.78;5070349;28;20155;-53
2023/05/28 00:47:14;;;;;;;16.45;5.68;;;;;;;13.26;100.00;101928.00;5052282;28;20136;-53
2023/05/28 00:49:44;;;;;;;17.42;5.47;;;;;;;13.39;100.00;101935.22;5070133;28;20049;-53
2023/05/28 00:52:12;;;;;;;11.80;5.15;;;;;;;13.26;100.00;101930.63;5069422;28;20079;-53
2023/05/28 00:54:40;;;;;;;13.13;5.70;;;;;;;13.24;100.00;101935.19;5070380;28;20052;-54
2023/05/28 00:57:09;;;;;;;15.32;5.75;;;;;;;13.25;100.00;101934.25;5068417;28;20048;-52
2023/05/28 00:59:38;;;;;;;17.30;6.38;;;;;;;13.19;100.00;101943.34;5070585;28;20453;-54
2023/05/28 01:02:06;;;;;;;13.57;5.72;;;;;;;13.09;100.00;101936.94;5070261;28;20060;-52
2023/05/28 01:04:35;;;;;;;18.08;6.10;;;;;;;12.99;100.00;101941.91;5069786;28;20052;-52
2023/05/28 01:07:08;;;;;;;15.48;6.18;;;;;;;13.07;100.00;101943.22;5069779;28;20057;-54
2023/05/28 01:09:36;;;;;;;16.02;6.10;;;;;;;13.00;100.00;101943.56;5070936;28;20055;-55
2023/05/28 01:12:07;;;;;;;16.90;6.15;;;;;;;12.89;100.00;101939.88;5068665;28;20041;-53
2023/05/28 01:14:38;;;;;;;17.00;6.22;;;;;;;12.83;100.00;101944.56;5052004;28;20052;-50
2023/05/28 01:17:06;;;;;;;17.17;6.45;;;;;;;12.77;100.00;101939.63;5070506;28;20392;-50
2023/05/28 01:19:35;;;;;;;16.05;6.30;;;;;;;12.76;100.00;101945.88;5071397;28;20055;-54
2023/05/28 01:22:05;;;;;;;17.10;6.65;;;;;;;12.75;100.00;101932.72;5069840;28;20153;-54
2023/05/28 01:24:37;;;;;;;18.73;6.22;;;;;;;12.69;100.00;101936.56;5069784;28;20730;-54
2023/05/28 01:27:05;;;;;;;16.33;6.35;;;;;;;12.73;100.00;101940.72;5068385;28;20050;-54
2023/05/28 01:29:33;;;;;;;18.27;6.82;;;;;;;12.87;100.00;101941.75;5072025;28;20044;-52
2023/05/28 01:32:01;;;;;;;13.13;5.68;;;;;;;12.84;100.00;101943.63;5069939;28;20041;-54
2023/05/28 01:34:30;;;;;;;16.00;6.85;;;;;;;12.72;100.00;101938.19;5069173;28;20048;-52
2023/05/28 01:37:01;;;;;;;14.00;5.85;;;;;;;12.65;100.00;101925.34;5069537;28;20048;-54
2023/05/28 01:39:38;;;;;;;18.92;5.70;;;;;;;12.73;100.00;101926.69;5071551;28;20052;-52
2023/05/28 01:42:09;;;;;;;17.50;6.85;;;;;;;12.47;100.00;101927.22;5068060;28;20504;-54
2023/05/28 01:44:38;;;;;;;21.63;7.68;;;;;;;12.44;100.00;101923.91;5069536;28;20159;-51
2023/05/28 01:47:06;;;;;;;17.95;6.78;;;;;;;12.42;100.00;101918.72;5069751;28;20086;-51
2023/05/28 01:49:38;;;;;;;15.20;7.13;;;;;;;12.31;100.00;101905.28;5071459;28;20098;-51
2023/05/28 01:52:07;;;;;;;21.83;6.65;;;;;;;12.30;100.00;101908.88;5072262;28;20499;-52
2023/05/28 01:54:36;;;;;;;20.00;7.18;;;;;;;12.26;100.00;101904.69;5072522;28;20048;-54
2023/05/28 01:57:05;;;;;;;18.27;6.85;;;;;;;12.26;100.00;101905.53;5071191;28;20060;-65
2023/05/28 01:59:35;;;;;;;21.10;7.55;;;;;;;12.22;100.00;101898.72;5069644;28;20901;-64
2023/05/28 02:02:05;;;;;;;19.50;7.40;;;;;;;12.18;100.00;101900.69;5051789;28;20357;-65
2023/05/28 02:04:33;;;;;;;19.13;7.30;;;;;;;12.18;100.00;101897.19;5068978;28;20070;-65
2023/05/28 02:07:01;;;;;;;17.63;6.78;;;;;;;12.24;100.00;101903.91;5050770;28;20063;-64
2023/05/28 02:09:29;;;;;;;16.85;6.82;;;;;;;12.21;100.00;101907.56;5069134;28;20124;-64
2023/05/28 02:12:02;;;;;;;19.38;6.97;;;;;;;12.25;100.00;101903.81;5069040;28;20567;-64
2023/05/28 02:14:31;;;;;;;16.83;6.50;;;;;;;12.29;100.00;101904.53;5071983;28;20044;-64
2023/05/28 02:16:59;;;;;;;22.92;8.05;;;;;;;12.26;100.00;101902.06;5071898;28;20475;-65
2023/05/28 02:19:28;;;;;;;18.73;7.70;;;;;;;12.18;100.00;101907.75;5068481;28;20582;-64
2023/05/28 02:21:56;;;;;;;17.63;6.90;;;;;;;12.22;100.00;101906.66;5069460;28;20036;-65
2023/05/28 02:24:25;;;;;;;19.63;7.18;;;;;;;12.13;100.00;101905.38;5052886;28;20074;-65
2023/05/28 02:26:53;;;;;;;20.52;7.78;;;;;;;12.21;100.00;101906.72;5049976;28;20044;-64
2023/05/28 02:29:22;;;;;;;15.00;7.03;;;;;;;12.14;100.00;101906.22;5068897;28;20515;-64
2023/05/28 02:31:50;;;;;;;17.13;7.00;;;;;;;12.15;100.00;101902.66;5071153;28;20044;-66
2023/05/28 02:34:19;;;;;;;20.98;7.57;;;;;;;12.05;100.00;101907.56;5053547;28;20049;-65
2023/05/28 02:36:47;;;;;;;17.58;7.32;;;;;;;12.09;100.00;101908.25;5072237;28;20064;-64
2023/05/28 02:39:18;;;;;;;17.88;7.40;;;;;;;12.06;100.00;101913.69;5075319;28;20040;-65
2023/05/28 02:41:46;;;;;;;15.25;6.70;;;;;;;12.08;100.00;101917.09;5071963;28;20057;-67
2023/05/28 02:44:14;;;;;;;22.52;7.72;;;;;;;12.03;100.00;101919.16;5072355;28;20806;-64
2023/05/28 02:46:44;;;;;;;18.35;6.63;;;;;;;12.00;100.00;101913.09;5072850;28;20123;-64
2023/05/28 02:49:12;;;;;;;18.23;6.95;;;;;;;12.00;100.00;101918.38;5072806;28;20621;-65
2023/05/28 02:51:40;;;;;;;14.45;7.03;;;;;;;11.97;100.00;101921.16;5055133;28;20067;-65
2023/05/28 02:54:08;;;;;;;19.48;7.30;;;;;;;11.87;100.00;101919.06;5072174;28;20032;-53
2023/05/28 02:56:37;;;;;;;20.38;7.38;;;;;;;11.83;100.00;101915.75;5071412;28;20060;-66
2023/05/28 02:59:05;;;;;;;18.23;7.40;;;;;;;11.78;100.00;101915.13;5071796;28;20487;-64
2023/05/28 03:01:33;;;;;;;16.45;6.93;;;;;;;11.77;100.00;101903.75;5073492;28;20079;-65
2023/05/28 03:04:03;;;;;;;16.00;6.35;;;;;;;11.79;100.00;101901.03;5075112;28;20534;-65
2023/05/28 03:06:33;;;;;;;16.02;6.75;;;;;;;11.78;100.00;101894.06;5072667;28;20052;-52
2023/05/28 03:09:01;;;;;;;16.95;7.32;;;;;;;11.78;100.00;101894.06;5072470;28;20399;-64
2023/05/28 03:11:29;;;;;;;17.98;8.48;;;;;;;11.90;100.00;101903.97;5070282;28;20133;-64
2023/05/28 03:13:57;;;;;;;16.85;6.53;;;;;;;11.78;100.00;101915.13;5074545;28;20510;-65
2023/05/28 03:16:26;;;;;;;17.42;7.63;;;;;;;11.77;100.00;101913.44;5072359;28;20048;-65
2023/05/28 03:18:54;;;;;;;17.25;7.05;;;;;;;11.78;100.00;101912.50;5073242;28;20432;-65
2023/05/28 03:21:23;;;;;;;17.70;7.55;;;;;;;11.77;100.00;101914.28;5074661;28;20045;-65
2023/05/28 03:23:51;;;;;;;23.85;7.80;;;;;;;11.74;100.00;101910.97;5074845;28;20495;-65
2023/05/28 03:26:21;;;;;;;17.23;7.47;;;;;;;11.71;100.00;101917.28;5074255;28;20076;-66
2023/05/28 03:28:49;;;;;;;18.42;7.32;;;;;;;11.62;100.00;101915.94;5073701;28;20045;-63
2023/05/28 03:31:17;;;;;;;21.02;7.50;;;;;;;11.62;100.00;101920.38;5071649;28;20049;-65
2023/05/28 03:33:45;;;;;;;20.33;7.65;;;;;;;11.61;100.00;101916.88;5073432;28;20044;-65
2023/05/28 03:36:13;;;;;;;18.75;7.63;;;;;;;11.59;100.00;101926.66;5074824;28;20045;-64
2023/05/28 03:38:43;;;;;;;17.10;7.68;;;;;;;11.56;100.00;101923.31;5074207;28;20495;-65
2023/05/28 03:41:11;;;;;;;17.40;7.32;;;;;;;11.52;100.00;101925.28;5072020;28;20094;-65
2023/05/28 03:43:39;;;;;;;23.75;8.02;;;;;;;11.44;100.00;101925.66;5071421;28;20529;-52
2023/05/28 03:46:08;;;;;;;19.08;7.40;;;;;;;11.46;100.00;101928.22;5073092;28;20098;-50
2023/05/28 03:48:36;;;;;;;17.35;7.95;;;;;;;11.40;100.00;101918.88;5071471;28;20488;-53
2023/05/28 03:51:04;;;;;;;20.65;8.10;;;;;;;11.35;100.00;101912.13;5071145;28;20123;-52
2023/05/28 03:53:33;;;;;;;19.70;7.88;;;;;;;11.40;100.00;101920.63;5053706;28;20112;-52
2023/05/28 03:56:03;;;;;;;20.35;7.30;;;;;;;11.39;100.00;101921.56;5072012;28;20385;-53
2023/05/28 03:58:31;;;;;;;18.00;8.20;;;;;;;11.36;100.00;101919.06;5072023;28;20428;-51
2023/05/28 04:00:59;;;;;;;20.08;7.60;;;;;;;11.31;100.00;101912.25;5071156;28;20059;-54
2023/05/28 04:03:28;;;;;;;20.77;7.95;;;;;;;11.32;100.00;101918.41;5071009;28;20872;-54
2023/05/28 04:06:00;;;;;;;19.23;7.70;;;;;;;11.34;100.00;101913.91;5049431;28;20520;-52
2023/05/28 04:08:28;;;;;;;17.50;8.23;;;;;;;11.40;100.00;101916.22;5050605;28;20076;-51
2023/05/28 04:10:56;;;;;;;20.25;7.68;;;;;;;11.31;100.00;101912.25;5052481;28;20127;-48
2023/05/28 04:13:26;;;;;;;21.27;8.60;;;;;;;11.25;100.00;101919.66;5052147;28;20079;-51
2023/05/28 04:15:54;;;;;;;18.17;7.63;;;;;;;11.29;100.00;101918.56;5051222;28;20504;-52
2023/05/28 04:18:22;;;;;;;20.02;8.10;;;;;;;11.31;100.00;101920.16;5050514;28;20052;-48
2023/05/28 04:20:51;;;;;;;22.60;8.35;;;;;;;11.33;100.00;101920.97;5051096;28;20044;-51
2023/05/28 04:23:19;;;;;;;17.40;7.75;;;;;;;11.38;100.00;101915.44;5052097;28;20123;-52
2023/05/28 04:25:47;;;;;;;16.88;8.60;;;;;;;11.43;100.00;101923.97;5049944;28;20099;-51
2023/05/28 04:28:15;;;;;;;17.10;8.15;;;;;;;11.45;100.00;101929.16;5052640;28;20045;-48
2023/05/28 04:30:45;;;;;;;18.30;7.65;;;;;;;11.50;100.00;101919.22;5050699;28;20130;-50
2023/05/28 04:33:17;;;;;;;18.58;8.02;;;;;;;11.62;100.00;101926.50;5050559;28;20132;-52
2023/05/28 04:35:45;;;;;;;19.77;7.87;;;;;;;11.62;100.00;101939.66;5050208;28;20081;-50
2023/05/28 04:38:14;;;;;;;19.20;7.75;;;;;;;11.63;100.00;101938.75;5049876;28;20465;-53
2023/05/28 04:40:42;;;;;;;20.17;8.13;;;;;;;11.73;100.00;101938.25;5052779;28;20045;-53
2023/05/28 04:43:10;;;;;;;16.90;7.60;;;;;;;11.74;100.00;101934.69;5052556;28;20037;-54
2023/05/28 04:45:38;;;;;;;20.40;8.20;;;;;;;11.73;100.00;101935.63;5050698;28;20045;-54
2023/05/28 04:48:09;;;;;;;21.20;8.30;;;;;;;11.80;100.00;101939.63;5049175;28;20057;-51
2023/05/28 04:50:37;;;;;;;22.92;8.50;;;;;;;11.79;100.00;101941.44;5050233;28;20053;-52
2023/05/28 04:53:05;;;;;;;19.23;7.57;;;;;;;11.86;100.00;101943.72;5051920;28;20041;-51
2023/05/28 04:55:34;;;;;;;16.08;7.88;;;;;;;11.86;100.00;101947.19;5050865;28;20144;-52
2023/05/28 04:58:03;;;;;;;20.85;7.90;;;;;;;11.90;100.00;101940.00;5049567;28;20055;-52
2023/05/28 05:00:31;;;;;;;17.92;7.70;;;;;;;11.94;100.00;101955.63;5051992;28;20068;-52
2023/05/28 05:02:59;;;;;;;17.75;7.75;;;;;;;11.90;100.00;101967.22;5051112;28;20048;-52
2023/05/28 05:05:30;;;;;;;18.40;7.55;;;;;;;11.94;100.00;101963.53;5049920;28;20083;-52
2023/05/28 05:07:58;;;;;;;18.80;7.28;;;;;;;11.96;100.00;101964.28;5071893;28;20103;-53
2023/05/28 05:10:26;;;;;;;18.73;7.63;;;;;;;12.02;100.00;101957.81;5072726;28;20518;-52
2023/05/28 05:12:55;;;;;;;22.60;8.38;;;;;;;12.03;100.00;101963.97;5053934;28;20143;-52
2023/05/28 05:15:23;;;;;;;20.27;9.10;;;;;;;12.10;100.00;101957.41;5069951;28;20400;-52
2023/05/28 05:17:52;;;;;;;18.00;7.35;;;;;;;12.13;100.00;101954.59;5070013;28;20066;-52
2023/05/28 05:20:20;;;;;;;19.45;8.25;;;;;;;12.12;100.00;101950.25;5069234;28;20503;-49
2023/05/28 05:22:50;;;;;;;22.35;9.15;;;;;;;12.14;100.00;101951.03;5069892;28;20045;-51
2023/05/28 05:25:18;;;;;;;24.23;8.20;;;;;;;12.24;100.00;101951.38;5069323;28;20503;-52
2023/05/28 05:27:50;;;;;;;22.40;8.18;;;;;;;12.29;100.00;101952.84;5067790;28;20399;-53
2023/05/28 05:30:18;;;;;;;19.07;8.63;;;;;;;12.44;100.00;101963.50;5069496;28;20051;-53
2023/05/28 05:32:47;;;;;;;20.05;8.15;;;;;;;12.45;100.00;101960.75;5071342;28;20445;-51
2023/05/28 05:35:16;;;;;;;19.00;8.48;;;;;;;12.47;100.00;101963.31;5068379;28;20040;-52
2023/05/28 05:37:44;;;;;;;20.92;8.40;;;;;;;12.51;100.00;101965.69;5051432;28;20530;-53
2023/05/28 05:40:14;;;;;;;18.88;8.38;;;;;;;12.55;100.00;101962.91;5051034;28;20500;-50
2023/05/28 05:42:42;;;;;;;17.67;8.02;;;;;;;12.62;100.00;101964.25;5069612;28;20055;-50
2023/05/28 05:45:10;;;;;;;16.98;8.13;;;;;;;12.68;100.00;101970.03;5070168;28;20068;-52
2023/05/28 05:47:39;;;;;;;16.58;8.40;;;;;;;12.72;100.00;101964.56;5069258;28;20468;-51
2023/05/28 05:50:08;;;;;;;23.23;8.13;;;;;;;12.75;100.00;101962.63;5071894;28;20040;-53
2023/05/28 05:52:36;;;;;;;21.40;8.18;;;;;;;12.87;100.00;101969.00;5069895;28;20072;-52
2023/05/28 05:55:05;;;;;;;18.40;8.27;;;;;;;12.90;100.00;101965.31;5069491;28;20060;-53
2023/05/28 05:57:36;;;;;;;20.23;8.60;;;;;;;13.01;100.00;101965.56;5068194;28;20060;-54
2023/05/28 06:00:08;;;;;;;16.33;8.18;;;;;;;13.14;100.00;101965.69;5069640;28;20076;-52
2023/05/28 06:02:37;;;;;;;21.00;8.77;;;;;;;13.35;100.00;101958.31;5072366;28;20048;-54
2023/05/28 06:05:06;;;;;;;20.10;8.15;;;;;;;13.37;100.00;101951.16;5053229;28;20452;-53
2023/05/28 06:07:34;;;;;;;18.02;7.45;;;;;;;13.49;100.00;101954.88;5069080;28;20811;-51
2023/05/28 06:10:02;;;;;;;20.33;7.60;;;;;;;13.54;100.00;101955.47;5051463;28;20512;-50
2023/05/28 06:12:31;;;;;;;17.90;7.00;;;;;;;13.62;100.00;101962.91;5069127;28;20123;-53
2023/05/28 06:15:00;;;;;;;18.70;7.63;;;;;;;13.72;100.00;101960.59;5073392;28;20041;-53
2023/05/28 06:17:28;;;;;;;14.43;7.18;;;;;;;13.80;100.00;101959.16;5054859;28;20160;-53
2023/05/28 06:19:57;;;;;;;17.35;7.25;;;;;;;13.95;100.00;101960.00;5072684;28;20037;-53
2023/05/28 06:22:25;;;;;;;18.27;7.55;;;;;;;14.08;100.00;101968.03;5073087;28;20046;-52
2023/05/28 06:24:55;;;;;;;14.52;6.88;;;;;;;14.24;100.00;101961.78;5074464;28;20123;-54
2023/05/28 06:27:23;;;;;;;17.98;8.15;;;;;;;14.43;100.00;101962.31;5074881;28;20147;-51
2023/05/28 06:29:51;;;;;;;16.77;7.20;;;;;;;14.57;100.00;101961.41;5073117;28;20048;-52
2023/05/28 06:32:21;;;;;;;17.13;7.75;;;;;;;14.68;100.00;101958.97;5072360;28;20128;-53
2023/05/28 06:34:49;;;;;;;18.85;7.38;;;;;;;14.81;100.00;101966.97;5072347;28;20052;-54
2023/05/28 06:37:17;;;;;;;16.27;6.95;;;;;;;14.90;100.00;101960.19;5072060;28;20052;-52
2023/05/28 06:39:45;;;;;;;18.02;7.75;;;;;;;14.97;100.00;101964.16;5054984;28;20102;-54
2023/05/28 06:42:13;;;;;;;21.30;7.57;;;;;;;15.09;100.00;101969.59;5071433;28;20059;-53
2023/05/28 06:44:41;;;;;;;16.65;6.80;;;;;;;15.15;100.00;101964.72;5074705;28;20450;-53
2023/05/28 06:47:10;;;;;;;16.98;7.45;;;;;;;15.28;100.00;101964.75;5072777;28;20543;-55
2023/05/28 06:49:39;;;;;;;17.73;7.55;;;;;;;15.33;100.00;101969.75;5074468;28;20044;-55
2023/05/28 06:52:08;;;;;;;19.30;7.60;;;;;;;15.41;100.00;101969.25;5054759;28;20060;-66
2023/05/28 06:54:36;;;;;;;17.73;7.65;;;;;;;15.41;100.00;101971.91;5072650;28;20076;-66
2023/05/28 06:57:04;;;;;;;16.17;7.80;;;;;;;15.51;100.00;101965.00;5071154;28;20704;-66
2023/05/28 06:59:32;;;;;;;18.35;7.25;;;;;;;15.53;100.00;101968.41;5073496;28;20064;-65
2023/05/28 07:02:00;;;;;;;17.05;8.00;;;;;;;15.62;100.00;101962.44;5073342;28;20056;-65
2023/05/28 07:04:29;;;;;;;19.35;7.72;;;;;;;15.64;100.00;101965.84;5071677;28;20491;-53
2023/05/28 07:07:00;;;;;;;19.95;7.47;;;;;;;15.72;100.00;101974.13;5071603;28;20052;-54
2023/05/28 07:09:29;;;;;;;18.60;7.95;;;;;;;15.74;100.00;101971.38;5072526;28;20059;-53
2023/05/28 07:11:57;;;;;;;17.38;7.07;;;;;;;15.81;100.00;101971.81;5071654;28;20151;-55
2023/05/28 07:14:25;;;;;;;16.38;7.32;;;;;;;15.87;100.00;101977.56;5073343;28;20056;-53
2023/05/28 07:16:54;;;;;;;18.15;8.20;;;;;;;15.93;100.00;101978.94;5072372;28;20047;-55
2023/05/28 07:19:22;;;;;;;16.85;7.63;;;;;;;15.92;100.00;101990.47;5073769;28;20053;-55
2023/05/28 07:21:50;;;;;;;15.18;6.78;;;;;;;16.12;100.00;101981.13;5074494;28;20049;-54
2023/05/28 07:24:19;;;;;;;15.57;6.97;;;;;;;16.37;100.00;101995.31;5054020;28;20064;-54
2023/05/28 07:26:47;;;;;;;19.40;7.07;;;;;;;16.55;100.00;101993.13;5073018;28;20503;-57
2023/05/28 07:29:18;;;;;;;16.45;6.82;;;;;;;16.77;100.00;101996.88;5074600;28;20124;-60
2023/05/28 07:31:46;;;;;;;16.98;7.40;;;;;;;16.98;100.00;101995.31;5071973;28;20044;-55
2023/05/28 07:34:15;;;;;;;13.32;6.03;;;;;;;17.15;100.00;101990.56;5071027;28;20048;-55
2023/05/28 07:36:43;;;;;;;18.42;7.47;;;;;;;17.36;100.00;101988.09;5072600;28;20048;-55
2023/05/28 07:39:11;;;;;;;17.17;6.20;;;;;;;17.55;100.00;101988.38;5074055;28;20037;-65
2023/05/28 07:41:44;;;;;;;16.17;6.25;;;;;;;17.77;100.00;101991.22;5073859;28;20044;-63
2023/05/28 07:44:12;;;;;;;15.35;6.38;;;;;;;17.91;100.00;101998.94;5071954;28;20052;-64
2023/05/28 07:46:40;;;;;;;14.57;6.20;;;;;;;17.98;100.00;101992.19;5071412;28;20044;-65
2023/05/28 07:49:11;;;;;;;13.95;5.72;;;;;;;18.18;100.00;102001.28;5070760;28;20044;-66
2023/05/28 07:51:40;;;;;;;14.90;5.60;;;;;;;18.33;100.00;102001.88;5054271;28;20056;-64
2023/05/28 07:54:08;;;;;;;13.25;5.85;;;;;;;18.52;100.00;101992.41;5073992;28;20557;-65
2023/05/28 07:56:36;;;;;;;15.07;6.47;;;;;;;18.66;100.00;102000.13;5074267;28;20036;-65
2023/05/28 07:59:05;;;;;;;15.25;5.53;;;;;;;18.81;100.00;101994.50;5073879;28;20052;-64
2023/05/28 08:01:34;;;;;;;12.32;5.55;;;;;;;18.84;100.00;101995.13;5073055;28;20072;-65
2023/05/28 08:04:03;;;;;;;15.48;5.95;;;;;;;19.01;100.00;101995.56;5071117;28;20426;-65
2023/05/28 08:06:31;;;;;;;12.00;5.65;;;;;;;19.23;100.00;101997.28;5072196;28;20068;-67
2023/05/28 08:09:00;;;;;;;16.35;5.68;;;;;;;19.44;100.00;101997.28;5071711;28;20040;-64
2023/05/28 08:11:28;;;;;;;16.08;6.43;;;;;;;19.57;100.00;101997.09;5068988;28;20427;-64
2023/05/28 08:13:56;;;;;;;15.52;6.03;;;;;;;19.68;100.00;101997.00;5070487;28;20052;-66
2023/05/28 08:16:26;;;;;;;14.85;5.38;;;;;;;19.89;100.00;101990.81;5070191;28;20143;-65
2023/05/28 08:18:54;;;;;;;14.32;5.35;;;;;;;20.09;100.00;101981.91;5072069;28;20559;-64
2023/05/28 08:21:22;;;;;;;14.82;6.00;;;;;;;20.32;100.00;101981.72;5073406;28;20221;-65
2023/05/28 08:23:51;;;;;;;12.20;4.75;;;;;;;20.44;100.00;101977.94;5073169;28;20403;-65
2023/05/28 08:26:19;;;;;;;13.90;5.78;;;;;;;20.59;100.00;101974.88;5072790;28;20120;-65
2023/05/28 08:28:47;;;;;;;14.90;5.35;;;;;;;20.83;100.00;101976.34;5070790;28;20384;-65
2023/05/28 08:31:16;;;;;;;11.40;5.05;;;;;;;21.00;100.00;101972.97;5070392;28;20064;-65
2023/05/28 08:33:45;;;;;;;15.05;5.18;;;;;;;21.08;100.00;101964.25;5070142;28;20895;-65
2023/05/28 08:36:14;;;;;;;14.00;5.28;;;;;;;21.41;100.00;101967.44;5069503;28;20048;-65
2023/05/28 08:38:42;;;;;;;16.83;5.65;;;;;;;21.51;100.00;101964.72;5070709;28;20094;-64
2023/05/28 08:41:11;;;;;;;10.75;4.47;;;;;;;21.74;100.00;101968.75;5068834;28;20048;-64
2023/05/28 08:43:39;;;;;;;14.18;4.95;;;;;;;21.78;98.64;101967.47;5052342;28;20048;-65
2023/05/28 08:46:08;;;;;;;10.52;4.97;;;;;;;21.68;97.20;101964.00;5071919;28;20048;-64
2023/05/28 08:48:36;;;;;;;13.27;4.97;;;;;;;21.90;97.98;101953.91;5073193;28;20476;-64
2023/05/28 08:51:06;;;;;;;13.48;5.13;;;;;;;21.99;93.31;101966.44;5070253;28;20052;-64
2023/05/28 08:53:40;;;;;;;14.30;5.28;;;;;;;22.18;95.29;101969.97;5070890;28;20048;-64
2023/05/28 08:56:09;;;;;;;13.68;5.20;;;;;;;22.16;95.85;101970.13;5072578;28;20048;-56
2023/05/28 08:58:39;;;;;;;13.07;4.97;;;;;;;22.16;95.81;101969.31;5072657;28;20048;-64
2023/05/28 09:01:11;;;;;;;13.40;5.22;;;;;;;22.27;95.11;101963.72;5054642;28;20052;-57
2023/05/28 09:03:41;;;;;;;13.32;5.07;;;;;;;22.18;96.62;101965.44;5072597;28;20072;-57
2023/05/28 09:06:12;;;;;;;13.52;5.28;;;;;;;22.43;97.08;101966.63;5069478;28;20052;-54
2023/05/28 09:08:41;;;;;;;13.48;4.90;;;;;;;22.58;94.64;101958.06;5070546;28;20114;-56
2023/05/28 09:11:13;;;;;;;12.77;5.35;;;;;;;22.73;95.97;101950.34;5068395;28;20047;-64
2023/05/28 09:13:43;;;;;;;10.35;4.78;;;;;;;22.92;93.14;101954.69;5071722;28;20127;-64
2023/05/28 09:16:11;;;;;;;11.73;4.93;;;;;;;22.95;93.58;101959.75;5072264;28;20044;-65
2023/05/28 09:18:42;;;;;;;14.57;5.38;;;;;;;22.82;90.36;101953.91;5069422;28;20123;-64
2023/05/28 09:21:12;;;;;;;12.18;5.28;;;;;;;23.07;92.51;101950.44;5050651;28;20044;-65
2023/05/28 09:23:40;;;;;;;12.18;4.88;;;;;;;23.12;90.11;101944.59;5071293;28;20385;-64
2023/05/28 09:26:10;;;;;;;17.23;5.93;;;;;;;23.14;87.85;101950.69;5072355;28;20040;-65
2023/05/28 09:28:41;;;;;;;12.30;5.30;;;;;;;23.34;86.75;101950.50;5072451;28;20036;-64
2023/05/28 09:31:11;;;;;;;11.73;5.13;;;;;;;23.40;83.87;101942.66;5071773;28;20044;-65
2023/05/28 09:33:42;;;;;;;10.75;5.88;;;;;;;23.59;83.54;101946.97;5069354;28;20124;-65
2023/05/28 09:36:12;;;;;;;13.85;5.68;;;;;;;23.59;83.33;101946.13;5069317;28;20395;-63
2023/05/28 09:38:41;;;;;;;13.95;5.00;;;;;;;23.76;78.31;101947.91;5071897;28;20492;-65
2023/05/28 09:41:19;;;;;;;12.57;5.45;;;;;;;23.80;80.39;101945.72;5071700;28;20169;-58
2023/05/28 09:43:57;;;;;;;12.05;5.00;;;;;;;24.01;79.65;101952.53;5069358;28;20090;-59
2023/05/28 09:46:30;;;;;;;10.20;4.60;;;;;;;24.01;73.93;101949.84;5052986;28;20052;-64
2023/05/28 09:48:59;;;;;;;13.68;5.25;;;;;;;24.21;71.83;101953.13;5075238;28;20048;-64
2023/05/28 09:51:30;;;;;;;15.43;6.22;;;;;;;24.21;73.23;101948.56;5058360;28;20135;-57
2023/05/28 09:54:00;;;;;;;13.57;5.70;;;;;;;24.42;72.37;101944.63;5076426;28;20052;-58
2023/05/28 09:56:31;;;;;;;13.73;5.70;;;;;;;24.36;70.88;101935.34;5074540;28;20090;-66
2023/05/28 09:59:03;;;;;;;13.40;4.85;;;;;;;24.62;69.35;101942.47;5073551;28;20048;-64
2023/05/28 10:01:40;;;;;;;11.57;4.60;;;;;;;24.77;66.01;101943.53;5074654;28;20036;-65
2023/05/28 10:04:11;;;;;;;14.27;4.75;;;;;;;24.82;67.14;101936.81;5075869;28;20048;-65
2023/05/28 10:06:45;;;;;;;11.23;4.50;;;;;;;25.04;67.70;101935.25;5075912;28;20044;-66
2023/05/28 10:09:16;;;;;;;14.50;4.75;;;;;;;25.23;67.28;101936.75;5058067;28;20059;-65
2023/05/28 10:11:53;;;;;;;14.00;4.65;;;;;;;24.96;63.36;101949.56;5076102;28;20076;-64
2023/05/28 10:14:22;;;;;;;11.82;4.43;;;;;;;24.94;61.98;101936.28;5075887;28;20076;-64
2023/05/28 10:16:53;;;;;;;10.65;4.78;;;;;;;24.80;66.50;101948.56;5073294;28;20040;-64
2023/05/28 10:19:23;;;;;;;13.55;4.97;;;;;;;24.58;66.51;101933.03;5072131;28;20487;-65
2023/05/28 10:21:53;;;;;;;13.88;4.60;;;;;;;24.78;66.13;101939.78;5054773;28;20049;-65
2023/05/28 10:24:22;;;;;;;11.48;4.88;;;;;;;24.87;65.76;101945.19;5072417;28;20048;-63
2023/05/28 10:26:51;;;;;;;13.60;5.20;;;;;;;24.91;67.95;101941.16;5053290;28;20090;-64
2023/05/28 10:29:20;;;;;;;13.50;5.40;;;;;;;24.84;68.64;101940.16;5074396;28;20037;-64
2023/05/28 10:31:58;;;;;;;15.30;5.22;;;;;;;24.88;68.91;101941.50;5072864;28;20491;-66
2023/05/28 10:34:31;;;;;;;12.57;4.97;;;;;;;25.28;69.48;101934.41;5074031;28;20044;-57
2023/05/28 10:37:04;;;;;;;16.10;5.70;;;;;;;25.18;66.09;101931.03;5075551;28;20128;-56
2023/05/28 10:39:42;;;;;;;13.82;5.45;;;;;;;25.05;66.70;101932.41;5075275;28;20495;-57
2023/05/28 10:42:14;;;;;;;10.18;4.63;;;;;;;25.11;64.57;101939.81;5070640;28;20040;-56
2023/05/28 10:45:08;;;;;;;14.23;5.68;;;;;;;25.07;60.60;101941.16;5072686;28;20521;-57
2023/05/28 10:47:38;;;;;;;11.60;4.30;;;;;;;25.17;61.41;101942.81;5043431;28;20088;-56
2023/05/28 10:50:14;;;;;;;12.18;4.68;;;;;;;25.23;60.24;101944.84;5075053;28;20052;-59
2023/05/28 10:53:08;;;;;;;13.70;4.78;;;;;;;25.38;56.54;101948.53;5072448;28;20052;-56
2023/05/28 10:55:49;;;;;;;11.07;4.15;;;;;;;25.29;56.59;101944.13;5072482;28;20076;-63
2023/05/28 10:58:25;;;;;;;11.90;4.18;;;;;;;25.01;57.89;101946.38;5070771;28;20076;-64
2023/05/28 11:01:06;;;;;;;11.55;4.68;;;;;;;24.98;56.78;101944.88;5073356;28;20040;-64
2023/05/28 11:03:42;;;;;;;10.10;3.92;;;;;;;25.22;57.26;101937.75;5073201;28;20072;-64
2023/05/28 11:06:12;;;;;;;12.32;4.15;;;;;;;25.19;58.36;101932.72;5053095;28;20056;-63
2023/05/28 11:08:44;;;;;;;14.18;4.28;;;;;;;25.65;60.10;101943.75;5072207;28;20441;-62
2023/05/28 11:11:17;;;;;;;11.85;4.38;;;;;;;25.55;60.36;101941.25;5052478;28;20519;-63
2023/05/28 11:13:46;;;;;;;10.20;3.88;;;;;;;25.90;57.34;101938.25;5072109;28;20052;-63
2023/05/28 11:16:16;;;;;;;13.75;4.20;;;;;;;25.96;56.67;101940.28;5071714;28;20403;-66
2023/05/28 11:19:04;;;;;;;14.02;4.93;;;;;;;25.53;56.43;101937.06;5071832;28;20052;-66
2023/05/28 11:21:32;;;;;;;12.73;4.30;;;;;;;25.87;58.37;101939.47;5073219;28;20048;-63
2023/05/28 11:24:04;;;;;;;11.35;4.40;;;;;;;25.95;55.04;101938.59;5071878;28;20033;-63